Time;durP1;ratioP1;P1;durP2;ratioP2;P2;SDS_P1;SDS_P2;PMS_P1;PMS_P2;Temp;Humidity;BMP_temperature;BMP_pressure;BME280_temperature;BME280_humidity;BME280_pressure;Samples;Min_cycle;Max_cycle;Signal;HPM_P1;HPM_P2
2023/05/18 04:01:08;;;;;;;2.80;2.30;;;9.80;75.40;;;;;;5792766;22;20498;-74
2023/05/18 04:03:35;;;;;;;3.23;2.93;;;9.80;75.20;;;;;;5034294;28;20480;-74
2023/05/18 04:06:02;;;;;;;3.23;2.43;;;9.70;75.10;;;;;;5034131;28;20480;-74
2023/05/18 04:08:29;;;;;;;2.53;2.20;;;9.70;75.10;;;;;;5033888;28;20820;-74
2023/05/18 04:10:55;;;;;;;3.57;3.27;;;9.80;75.20;;;;;;5033795;28;20885;-74
2023/05/18 04:13:22;;;;;;;2.60;2.20;;;9.80;75.10;;;;;;5034102;28;20501;-74
2023/05/18 04:15:49;;;;;;;3.80;2.27;;;9.80;75.20;;;;;;5034602;28;20454;-74
2023/05/18 04:18:17;;;;;;;3.17;2.60;;;9.90;75.00;;;;;;5034069;28;20458;-74
2023/05/18 04:20:44;;;;;;;4.20;2.83;;;9.90;75.00;;;;;;5033556;28;21011;-74
2023/05/18 04:23:12;;;;;;;4.37;2.83;;;9.90;74.80;;;;;;5033937;28;20451;-74
2023/05/18 04:25:40;;;;;;;2.73;2.20;;;10.00;74.60;;;;;;5033827;28;20487;-73
2023/05/18 04:28:07;;;;;;;3.40;2.53;;;10.00;74.30;;;;;;5033886;28;20454;-74
2023/05/18 04:30:34;;;;;;;3.47;2.57;;;10.10;74.30;;;;;;5033759;28;20447;-74
2023/05/18 04:33:02;;;;;;;2.57;2.07;;;10.10;74.20;;;;;;5033710;28;20456;-73
2023/05/18 04:35:31;;;;;;;3.70;2.80;;;10.10;74.40;;;;;;5033728;28;20525;-74
2023/05/18 04:37:58;;;;;;;3.07;2.27;;;10.20;74.10;;;;;;5033740;28;20530;-74
2023/05/18 04:40:25;;;;;;;2.80;2.30;;;10.30;74.20;;;;;;5033589;28;20447;-73
2023/05/18 04:42:51;;;;;;;3.23;2.27;;;10.30;74.10;;;;;;5033300;28;20535;-74
2023/05/18 04:45:20;;;;;;;4.33;2.40;;;10.40;74.10;;;;;;5033180;28;21024;-71
2023/05/18 04:47:52;;;;;;;2.80;2.20;;;10.30;74.40;;;;;;5034297;28;20452;-73
2023/05/18 04:50:19;;;;;;;4.30;2.90;;;10.40;74.40;;;;;;5034575;28;20480;-74
2023/05/18 04:52:52;;;;;;;3.70;3.10;;;10.50;73.70;;;;;;5034516;28;20472;-73
2023/05/18 04:55:24;;;;;;;4.00;2.73;;;10.50;73.80;;;;;;5033473;28;20490;-73
2023/05/18 04:57:55;;;;;;;3.07;2.40;;;10.60;73.60;;;;;;5033209;28;20973;-73
2023/05/18 05:00:22;;;;;;;3.23;2.23;;;10.70;73.30;;;;;;5033517;28;20474;-74
2023/05/18 05:02:49;;;;;;;2.90;2.00;;;10.80;73.40;;;;;;5033340;28;20443;-73
2023/05/18 05:05:16;;;;;;;2.67;2.10;;;10.80;73.10;;;;;;5033233;28;20479;-73
2023/05/18 05:07:43;;;;;;;3.30;2.63;;;10.90;72.70;;;;;;5033223;28;20866;-73
2023/05/18 05:10:11;;;;;;;3.33;2.50;;;11.00;72.50;;;;;;5033260;28;20448;-73
2023/05/18 05:12:38;;;;;;;4.53;2.90;;;11.10;72.20;;;;;;5033164;28;20475;-73
2023/05/18 05:15:05;;;;;;;3.60;2.07;;;11.20;71.70;;;;;;5033135;28;20501;-73
2023/05/18 05:17:32;;;;;;;3.50;2.33;;;11.30;71.30;;;;;;5033227;28;20462;-73
2023/05/18 05:19:59;;;;;;;5.20;2.63;;;11.30;71.00;;;;;;5032867;28;20870;-73
2023/05/18 05:22:26;;;;;;;2.80;2.27;;;11.40;71.20;;;;;;5032735;28;20980;-73
2023/05/18 05:24:52;;;;;;;3.00;2.30;;;11.50;70.70;;;;;;5033124;28;20448;-74
2023/05/18 05:27:21;;;;;;;2.90;2.03;;;11.50;70.50;;;;;;5032799;28;20948;-74
2023/05/18 05:29:49;;;;;;;3.73;3.30;;;11.50;70.10;;;;;;5033125;28;20444;-74
2023/05/18 05:32:15;;;;;;;3.80;2.27;;;11.70;70.10;;;;;;5032982;28;20464;-72
2023/05/18 05:34:45;;;;;;;3.63;2.30;;;11.70;69.80;;;;;;5033013;28;20447;-72
2023/05/18 05:37:12;;;;;;;3.80;2.50;;;11.80;69.60;;;;;;5033050;28;20448;-73
2023/05/18 05:39:39;;;;;;;4.30;2.10;;;11.90;69.50;;;;;;5032970;28;20451;-72
2023/05/18 05:42:07;;;;;;;3.50;2.40;;;12.00;69.00;;;;;;5032880;28;20497;-72
2023/05/18 05:44:35;;;;;;;2.43;2.13;;;12.10;69.70;;;;;;5032989;28;20439;-72
2023/05/18 05:47:01;;;;;;;2.67;2.10;;;12.20;68.30;;;;;;5032603;28;21030;-72
2023/05/18 05:49:28;;;;;;;2.63;2.07;;;12.20;67.80;;;;;;5032974;28;20455;-72
2023/05/18 05:51:55;;;;;;;3.47;2.33;;;12.30;67.70;;;;;;5032546;28;20471;-72
2023/05/18 05:54:21;;;;;;;3.43;2.30;;;12.50;67.10;;;;;;5032583;28;20936;-72
2023/05/18 05:56:48;;;;;;;2.60;2.00;;;12.50;67.60;;;;;;5036115;28;20948;-72
2023/05/18 05:59:15;;;;;;;3.13;2.00;;;12.50;67.10;;;;;;5036832;28;20582;-73
2023/05/18 06:01:43;;;;;;;6.77;2.20;;;12.80;66.60;;;;;;5036355;28;20570;-72
2023/05/18 06:04:11;;;;;;;2.40;1.80;;;12.90;66.00;;;;;;5036704;28;20455;-72
2023/05/18 06:06:38;;;;;;;3.60;2.03;;;13.00;66.50;;;;;;5036529;28;20513;-72
2023/05/18 06:09:05;;;;;;;2.70;2.07;;;13.20;66.10;;;;;;5036166;28;20970;-74
2023/05/18 06:11:31;;;;;;;3.03;1.87;;;13.30;66.00;;;;;;5036483;28;20467;-73
2023/05/18 06:13:58;;;;;;;2.93;2.37;;;13.50;64.70;;;;;;5036362;28;20504;-73
2023/05/18 06:16:25;;;;;;;3.77;2.57;;;13.60;64.30;;;;;;5036289;28;20530;-74
2023/05/18 06:18:53;;;;;;;3.03;1.90;;;13.60;64.90;;;;;;5036269;28;20501;-73
2023/05/18 06:21:20;;;;;;;2.50;2.00;;;13.80;64.60;;;;;;5035902;28;20999;-73
2023/05/18 06:23:47;;;;;;;4.50;2.37;;;13.80;63.70;;;;;;5036180;28;20505;-72
2023/05/18 06:26:14;;;;;;;3.80;2.33;;;14.10;63.60;;;;;;5036203;28;20537;-72
2023/05/18 06:28:40;;;;;;;2.67;2.17;;;14.20;63.30;;;;;;5036171;28;20483;-72
2023/05/18 06:31:07;;;;;;;3.40;2.33;;;14.30;64.20;;;;;;5036017;28;20463;-73
2023/05/18 06:33:35;;;;;;;3.63;2.27;;;14.50;62.80;;;;;;5036057;28;20448;-73
2023/05/18 06:36:03;;;;;;;3.50;2.03;;;14.60;62.10;;;;;;5036136;28;20506;-73
2023/05/18 06:38:30;;;;;;;3.73;1.80;;;14.50;61.90;;;;;;5035839;28;20455;-72
2023/05/18 06:40:57;;;;;;;3.67;2.50;;;14.60;62.10;;;;;;5035704;28;20456;-72
2023/05/18 06:43:25;;;;;;;4.47;2.77;;;14.90;62.10;;;;;;5035902;28;20451;-73
2023/05/18 06:45:52;;;;;;;3.60;1.83;;;15.00;62.20;;;;;;5035863;28;20494;-73
2023/05/18 06:48:19;;;;;;;5.20;2.33;;;15.10;61.70;;;;;;5035574;28;20456;-72
2023/05/18 06:50:45;;;;;;;3.10;2.30;;;15.10;60.80;;;;;;5035735;28;20467;-72
2023/05/18 06:53:13;;;;;;;3.03;1.97;;;15.10;61.00;;;;;;5035727;28;20454;-72
2023/05/18 06:55:40;;;;;;;3.03;2.30;;;15.30;61.10;;;;;;5035681;28;20493;-72
2023/05/18 06:58:07;;;;;;;2.90;1.90;;;15.40;60.70;;;;;;5035649;28;20458;-73
2023/05/18 07:00:33;;;;;;;3.37;2.30;;;15.50;60.80;;;;;;5035546;28;20454;-73
2023/05/18 07:03:00;;;;;;;3.30;2.50;;;15.20;60.70;;;;;;5035690;28;20494;-73
2023/05/18 07:05:28;;;;;;;4.83;2.13;;;15.10;60.40;;;;;;5035607;28;20542;-73
2023/05/18 07:07:55;;;;;;;3.13;2.10;;;15.10;61.20;;;;;;5035008;28;20933;-73
2023/05/18 07:10:23;;;;;;;3.40;2.37;;;15.40;61.10;;;;;;5035410;28;20526;-73
2023/05/18 07:12:50;;;;;;;4.40;2.73;;;15.40;59.90;;;;;;5035265;28;20474;-73
2023/05/18 07:15:17;;;;;;;3.40;2.20;;;15.20;61.20;;;;;;5035195;28;20443;-73
2023/05/18 07:17:44;;;;;;;3.67;2.07;;;15.20;60.50;;;;;;5035157;28;20447;-74
2023/05/18 07:20:11;;;;;;;3.80;2.60;;;15.40;61.10;;;;;;5035238;28;20539;-75
2023/05/18 07:22:38;;;;;;;3.43;1.80;;;15.50;60.80;;;;;;5034717;28;20968;-75
2023/05/18 07:25:05;;;;;;;2.70;1.67;;;15.20;60.20;;;;;;5035783;28;20463;-75
2023/05/18 07:27:33;;;;;;;4.07;2.03;;;15.30;60.90;;;;;;5035013;28;20487;-74
2023/05/18 07:30:00;;;;;;;2.40;1.60;;;15.00;60.90;;;;;;5035066;28;20448;-74
2023/05/18 07:32:26;;;;;;;3.80;2.33;;;14.90;60.90;;;;;;5034889;28;20561;-74
2023/05/18 07:34:53;;;;;;;3.47;2.00;;;15.20;62.10;;;;;;5034933;28;20805;-74
2023/05/18 07:37:20;;;;;;;2.67;1.90;;;15.50;60.90;;;;;;5035053;28;20470;-74
2023/05/18 07:39:46;;;;;;;3.77;2.30;;;15.00;61.00;;;;;;5034764;28;20447;-74
2023/05/18 07:42:13;;;;;;;2.67;2.03;;;15.10;63.60;;;;;;5034667;28;20474;-74
2023/05/18 07:44:41;;;;;;;2.70;1.90;;;15.10;61.50;;;;;;5035264;28;20447;-74
2023/05/18 07:47:07;;;;;;;2.87;1.93;;;15.10;62.50;;;;;;5034573;28;20492;-74
2023/05/18 07:49:34;;;;;;;4.50;2.30;;;15.40;62.10;;;;;;5034571;28;20447;-74
2023/05/18 07:52:01;;;;;;;2.63;2.00;;;15.20;61.20;;;;;;5034516;28;20831;-74
2023/05/18 07:54:28;;;;;;;2.50;2.07;;;15.10;61.20;;;;;;5034345;28;20490;-74
2023/05/18 07:56:55;;;;;;;3.30;2.50;;;14.90;61.60;;;;;;5034457;28;20443;-74
2023/05/18 07:59:21;;;;;;;5.23;2.20;;;15.10;62.30;;;;;;5034487;28;20455;-73
2023/05/18 08:01:49;;;;;;;3.23;1.93;;;15.00;61.50;;;;;;5034102;28;20838;-74
2023/05/18 08:04:16;;;;;;;2.63;2.00;;;15.00;63.90;;;;;;5034061;28;20455;-74
2023/05/18 08:06:43;;;;;;;3.53;2.20;;;15.00;62.50;;;;;;5034370;28;20494;-73
2023/05/18 08:09:10;;;;;;;3.50;2.23;;;15.00;62.70;;;;;;5034247;28;20456;-74
2023/05/18 08:11:37;;;;;;;3.00;2.30;;;15.10;62.10;;;;;;5034423;28;20476;-73
2023/05/18 08:14:04;;;;;;;4.43;2.43;;;15.30;62.50;;;;;;5034242;28;20459;-73
2023/05/18 08:16:35;;;;;;;4.43;2.40;;;15.40;62.60;;;;;;5034196;28;20462;-75
2023/05/18 08:19:03;;;;;;;3.83;2.33;;;15.50;62.30;;;;;;5033578;28;20432;-74
2023/05/18 08:21:31;;;;;;;5.70;2.47;;;15.40;61.70;;;;;;5033663;28;20980;-74
2023/05/18 08:23:58;;;;;;;2.57;1.90;;;15.40;62.20;;;;;;5034163;28;20505;-73
2023/05/18 08:26:25;;;;;;;2.77;2.20;;;15.70;62.10;;;;;;5033867;28;20513;-73
2023/05/18 08:28:52;;;;;;;2.90;1.90;;;15.90;60.90;;;;;;5033879;28;20447;-73
2023/05/18 08:31:20;;;;;;;3.43;2.30;;;16.10;61.10;;;;;;5033474;28;20980;-73
2023/05/18 08:33:47;;;;;;;3.50;2.50;;;16.10;61.40;;;;;;5033874;28;20452;-73
2023/05/18 08:36:15;;;;;;;2.50;1.80;;;16.10;60.60;;;;;;5033857;28;20458;-74
2023/05/18 08:38:42;;;;;;;2.80;1.83;;;16.30;61.60;;;;;;5033663;28;20538;-73
2023/05/18 08:41:18;;;;;;;3.00;1.70;;;16.20;59.20;;;;;;5033620;28;20475;-73
2023/05/18 08:43:48;;;;;;;2.50;2.00;;;16.10;60.40;;;;;;5033404;28;20818;-73
2023/05/18 08:46:20;;;;;;;4.33;2.57;;;16.00;60.10;;;;;;5033537;28;20455;-74
2023/05/18 08:48:49;;;;;;;5.20;2.03;;;15.90;61.20;;;;;;5033767;28;20460;-74
2023/05/18 08:51:20;;;;;;;4.77;2.17;;;16.20;60.80;;;;;;5033531;28;20631;-74
2023/05/18 08:53:52;;;;;;;3.50;2.00;;;16.40;59.20;;;;;;5033611;28;20431;-75
2023/05/18 08:56:21;;;;;;;3.03;2.37;;;16.30;59.50;;;;;;5034361;28;20443;-75
2023/05/18 08:58:50;;;;;;;4.77;2.87;;;16.10;60.10;;;;;;5033406;28;20573;-75
2023/05/18 09:01:17;;;;;;;3.93;2.00;;;16.20;62.00;;;;;;5033429;28;20479;-75
2023/05/18 09:03:44;;;;;;;4.40;3.07;;;16.40;61.20;;;;;;5033456;28;20878;-72
2023/05/18 09:06:12;;;;;;;2.40;1.87;;;16.40;60.40;;;;;;5032961;28;20447;-74
2023/05/18 09:08:40;;;;;;;3.70;2.20;;;16.30;59.10;;;;;;5033211;28;20439;-75
2023/05/18 09:11:08;;;;;;;3.20;1.97;;;16.30;59.00;;;;;;5032880;28;20529;-75
2023/05/18 09:13:34;;;;;;;3.57;2.10;;;16.20;59.10;;;;;;5033262;28;20444;-75
2023/05/18 09:16:01;;;;;;;4.67;2.57;;;16.20;59.30;;;;;;5033253;28;20448;-75
2023/05/18 09:18:28;;;;;;;3.47;2.10;;;16.10;58.10;;;;;;5033206;28;20493;-75
2023/05/18 09:20:55;;;;;;;4.13;2.30;;;16.00;59.30;;;;;;5033198;28;20506;-75
2023/05/18 09:23:21;;;;;;;2.90;2.20;;;15.80;59.80;;;;;;5033218;28;20453;-75
2023/05/18 09:25:52;;;;;;;2.73;2.00;;;16.00;59.20;;;;;;5033078;28;20489;-76
2023/05/18 09:28:27;;;;;;;3.67;2.00;;;16.20;58.80;;;;;;5033076;28;20475;-76
2023/05/18 09:30:54;;;;;;;3.07;2.00;;;16.20;57.60;;;;;;5041553;28;20543;-76
2023/05/18 09:33:22;;;;;;;3.90;2.00;;;16.30;58.50;;;;;;5040617;28;20461;-75
2023/05/18 09:35:50;;;;;;;3.80;2.37;;;16.50;59.90;;;;;;5037165;28;20479;-75
2023/05/18 09:38:20;;;;;;;2.90;2.10;;;16.70;57.80;;;;;;5037010;28;20448;-75
2023/05/18 09:40:49;;;;;;;4.90;2.50;;;16.70;57.30;;;;;;5036762;28;20507;-75
2023/05/18 09:43:18;;;;;;;2.70;2.10;;;16.50;57.70;;;;;;5037321;28;20874;-75
2023/05/18 09:45:46;;;;;;;2.70;1.83;;;16.60;57.70;;;;;;5037371;28;21008;-74
2023/05/18 09:48:14;;;;;;;2.80;2.10;;;16.60;58.30;;;;;;5036514;28;20476;-75
2023/05/18 09:50:42;;;;;;;2.97;1.87;;;16.80;57.60;;;;;;5036846;28;20455;-73
2023/05/18 09:53:10;;;;;;;5.30;2.73;;;17.00;58.80;;;;;;5037046;28;20817;-74
2023/05/18 09:55:38;;;;;;;3.00;1.93;;;17.30;56.50;;;;;;5036482;28;21010;-75
2023/05/18 09:58:09;;;;;;;3.70;2.37;;;17.40;56.70;;;;;;5036855;28;20522;-75
2023/05/18 10:00:41;;;;;;;3.70;1.90;;;17.80;55.50;;;;;;5036450;28;20443;-75
2023/05/18 10:03:17;;;;;;;2.70;1.80;;;17.30;54.60;;;;;;5036702;28;20527;-74
2023/05/18 10:05:43;;;;;;;2.50;1.60;;;17.10;55.00;;;;;;5036836;28;20496;-74
2023/05/18 10:08:12;;;;;;;3.53;1.60;;;17.20;55.60;;;;;;5036560;28;20491;-74
2023/05/18 10:10:41;;;;;;;2.73;1.43;;;17.40;56.30;;;;;;5036505;28;20482;-75
2023/05/18 10:13:13;;;;;;;2.90;1.80;;;17.40;54.40;;;;;;5036466;28;20448;-75
2023/05/18 10:15:47;;;;;;;4.20;2.47;;;17.30;55.10;;;;;;5090324;22;21008;-75
2023/05/18 10:18:17;;;;;;;2.97;1.90;;;17.30;56.40;;;;;;5036101;28;20427;-75
2023/05/18 10:20:44;;;;;;;2.77;1.63;;;17.50;55.40;;;;;;5036334;28;20497;-74
2023/05/18 10:23:12;;;;;;;3.00;1.97;;;17.20;55.00;;;;;;5036203;28;20447;-75
2023/05/18 10:25:41;;;;;;;3.77;1.90;;;16.80;54.70;;;;;;5036110;28;20470;-75
2023/05/18 10:28:11;;;;;;;3.40;2.17;;;16.80;55.20;;;;;;5035632;28;21016;-75
2023/05/18 10:30:40;;;;;;;3.73;2.30;;;17.00;57.50;;;;;;5035944;28;20447;-75
2023/05/18 10:33:08;;;;;;;6.07;2.40;;;16.90;54.00;;;;;;5035833;28;20850;-75
2023/05/18 10:35:38;;;;;;;2.10;1.50;;;16.90;56.50;;;;;;5036022;28;20574;-75
2023/05/18 10:38:05;;;;;;;2.43;1.60;;;17.20;55.70;;;;;;5035966;28;20448;-75
2023/05/18 10:40:34;;;;;;;8.57;2.00;;;17.30;55.80;;;;;;5035415;28;20454;-75
2023/05/18 10:43:03;;;;;;;3.30;1.97;;;17.40;55.50;;;;;;5035843;28;20451;-75
2023/05/18 10:45:34;;;;;;;2.20;1.70;;;17.50;54.70;;;;;;5035813;28;20702;-75
2023/05/18 10:48:04;;;;;;;4.10;2.40;;;17.50;54.80;;;;;;5035853;28;20476;-75
2023/05/18 10:50:31;;;;;;;4.10;1.77;;;17.50;55.00;;;;;;5035813;28;20451;-75
2023/05/18 10:52:59;;;;;;;4.27;2.67;;;17.80;54.20;;;;;;5035626;28;20880;-75
2023/05/18 10:55:27;;;;;;;4.20;2.40;;;17.50;54.10;;;;;;5035534;28;20474;-75
2023/05/18 10:58:01;;;;;;;2.70;1.90;;;17.40;53.20;;;;;;5035607;28;20502;-74
2023/05/18 11:00:28;;;;;;;2.50;1.83;;;17.30;53.40;;;;;;5035580;28;20797;-75
2023/05/18 11:02:56;;;;;;;3.13;1.73;;;17.50;53.00;;;;;;5035521;28;20444;-74
2023/05/18 11:05:26;;;;;;;5.37;2.07;;;17.80;55.20;;;;;;5035367;28;20845;-74
2023/05/18 11:08:02;;;;;;;3.03;2.30;;;18.30;53.00;;;;;;5035559;28;20490;-75
2023/05/18 11:10:34;;;;;;;2.93;2.33;;;18.70;52.40;;;;;;5035216;28;20431;-75
2023/05/18 11:13:01;;;;;;;3.03;1.87;;;18.90;52.50;;;;;;5036232;28;20436;-75
2023/05/18 11:15:58;;;;;;;5.10;2.20;;;18.80;53.10;;;;;;5049007;28;20480;-75
2023/05/18 11:18:34;;;;;;;4.80;2.87;;;19.00;51.50;;;;;;5049631;28;20431;-75
2023/05/18 11:21:01;;;;;;;3.33;2.60;;;18.60;50.80;;;;;;5048095;28;20396;-74
2023/05/18 11:23:31;;;;;;;2.43;2.10;;;18.30;51.00;;;;;;5049750;28;20452;-75
2023/05/18 11:26:01;;;;;;;4.07;1.83;;;18.00;51.70;;;;;;5050541;28;20467;-74
2023/05/18 11:28:28;;;;;;;3.23;2.13;;;18.00;53.70;;;;;;5047728;28;20486;-76
2023/05/18 11:30:55;;;;;;;3.93;1.90;;;18.20;51.60;;;;;;5048577;28;20451;-75
2023/05/18 11:33:24;;;;;;;2.70;1.70;;;18.40;52.40;;;;;;5048370;28;20432;-75
2023/05/18 11:35:57;;;;;;;2.30;1.60;;;18.70;52.00;;;;;;5048803;28;20542;-74
2023/05/18 11:38:44;;;;;;;2.50;1.70;;;19.00;51.20;;;;;;5035699;28;20435;-75
2023/05/18 11:41:30;;;;;;;2.20;1.50;;;19.10;51.90;;;;;;5035095;28;20471;-75
2023/05/18 11:44:08;;;;;;;3.10;1.80;;;19.30;51.10;;;;;;5034982;28;20550;-75
2023/05/18 11:46:35;;;;;;;4.10;1.80;;;19.40;48.80;;;;;;5034775;28;20439;-76
2023/05/18 11:49:07;;;;;;;3.00;1.73;;;19.30;49.90;;;;;;5034726;28;20479;-76
2023/05/18 11:51:55;;;;;;;2.50;1.80;;;19.40;50.00;;;;;;5034881;28;20432;-76
2023/05/18 11:54:23;;;;;;;3.50;1.67;;;19.30;52.50;;;;;;5033770;28;20494;-75
2023/05/18 11:56:51;;;;;;;4.40;1.97;;;19.40;49.60;;;;;;5034588;28;20465;-75
2023/05/18 11:59:29;;;;;;;2.80;1.97;;;19.10;49.20;;;;;;5035299;28;20451;-75
2023/05/18 12:01:57;;;;;;;2.50;1.50;;;19.20;49.60;;;;;;5034782;28;20801;-75
2023/05/18 12:04:24;;;;;;;2.67;1.70;;;19.20;49.30;;;;;;5034371;28;20471;-75
2023/05/18 12:06:53;;;;;;;3.30;1.83;;;19.60;49.10;;;;;;5034018;28;20853;-75
2023/05/18 12:09:20;;;;;;;3.10;1.80;;;19.80;48.90;;;;;;5034332;28;20487;-75
2023/05/18 12:11:47;;;;;;;3.43;1.40;;;19.90;47.60;;;;;;5034289;28;20456;-75
2023/05/18 12:14:14;;;;;;;2.80;1.50;;;19.70;47.70;;;;;;5034135;28;20851;-75
2023/05/18 12:16:42;;;;;;;3.80;1.70;;;19.60;48.60;;;;;;5045988;28;20436;-76
2023/05/18 12:19:09;;;;;;;3.20;1.53;;;19.60;48.40;;;;;;5046131;28;20476;-76
2023/05/18 12:21:36;;;;;;;3.93;2.10;;;19.50;49.00;;;;;;5046447;28;20442;-76
2023/05/18 12:24:04;;;;;;;2.60;1.80;;;19.50;48.90;;;;;;5048037;28;20836;-77
2023/05/18 12:26:32;;;;;;;2.30;1.40;;;19.60;48.70;;;;;;5047331;28;20519;-74
2023/05/18 12:29:00;;;;;;;2.63;1.50;;;19.90;49.10;;;;;;5047897;28;20494;-76
2023/05/18 12:31:28;;;;;;;2.70;1.40;;;20.00;47.90;;;;;;5047708;28;20483;-76
2023/05/18 12:33:58;;;;;;;3.20;1.70;;;20.30;48.00;;;;;;5047763;28;20456;-75
2023/05/18 12:36:26;;;;;;;2.40;1.40;;;20.40;47.80;;;;;;5047322;28;20475;-75
2023/05/18 12:38:52;;;;;;;2.43;1.40;;;20.50;49.00;;;;;;5047295;28;20451;-76
2023/05/18 12:41:25;;;;;;;4.50;1.60;;;20.00;47.60;;;;;;5047645;28;20909;-76
2023/05/18 12:43:53;;;;;;;2.20;1.50;;;19.80;48.50;;;;;;5047394;28;20518;-73
2023/05/18 12:46:22;;;;;;;3.60;1.57;;;19.90;48.50;;;;;;5047821;28;20452;-76
2023/05/18 12:48:56;;;;;;;3.07;1.80;;;20.10;47.70;;;;;;5047169;28;20509;-75
2023/05/18 12:51:23;;;;;;;2.50;1.60;;;19.90;47.80;;;;;;5047562;28;20437;-75
2023/05/18 12:53:50;;;;;;;3.77;1.87;;;19.60;48.70;;;;;;5046803;28;20448;-76
2023/05/18 12:56:17;;;;;;;3.13;1.60;;;19.60;49.30;;;;;;5047425;28;20435;-76
2023/05/18 12:58:57;;;;;;;3.30;1.57;;;19.70;49.10;;;;;;5047677;28;20804;-76
2023/05/18 13:01:24;;;;;;;3.40;1.50;;;19.80;48.50;;;;;;5047653;28;20411;-76
2023/05/18 13:03:56;;;;;;;2.60;1.53;;;19.60;47.60;;;;;;5046995;28;20459;-75
2023/05/18 13:06:23;;;;;;;3.03;1.47;;;19.70;48.70;;;;;;5047521;28;20488;-77
2023/05/18 13:08:53;;;;;;;2.93;1.80;;;19.30;49.60;;;;;;5046482;28;20483;-75
2023/05/18 13:11:26;;;;;;;3.20;1.60;;;19.10;49.80;;;;;;5047508;28;20434;-74
2023/05/18 13:14:03;;;;;;;3.33;1.50;;;19.10;50.90;;;;;;5047034;28;20428;-74
2023/05/18 13:16:31;;;;;;;3.30;1.60;;;18.90;50.20;;;;;;5046998;28;20789;-74
2023/05/18 13:19:00;;;;;;;2.37;1.40;;;19.30;50.40;;;;;;5046824;28;20458;-75
2023/05/18 13:21:26;;;;;;;2.67;1.47;;;19.30;49.80;;;;;;5047303;28;20440;-75
2023/05/18 13:23:54;;;;;;;2.83;1.57;;;19.40;49.60;;;;;;5047098;28;20489;-76
2023/05/18 13:26:21;;;;;;;2.57;1.50;;;19.60;49.30;;;;;;5047289;28;20507;-75
2023/05/18 13:28:50;;;;;;;2.30;1.20;;;19.20;48.70;;;;;;5047188;28;20483;-76
2023/05/18 13:31:18;;;;;;;3.10;1.73;;;18.80;49.70;;;;;;5046732;28;20451;-76
2023/05/18 13:33:45;;;;;;;3.63;2.00;;;18.90;50.30;;;;;;5047256;28;20462;-75
2023/05/18 13:36:12;;;;;;;2.40;1.60;;;19.10;50.40;;;;;;5046117;28;20456;-76
2023/05/18 13:38:39;;;;;;;2.27;1.30;;;19.40;49.10;;;;;;5046666;28;20443;-75
2023/05/18 13:41:06;;;;;;;3.07;1.53;;;19.80;50.40;;;;;;5047243;28;20456;-75
2023/05/18 13:43:33;;;;;;;3.30;1.53;;;20.00;48.00;;;;;;5047373;28;20933;-75
2023/05/18 13:46:00;;;;;;;2.20;1.40;;;19.90;46.60;;;;;;5046439;28;20478;-75
2023/05/18 13:48:30;;;;;;;2.87;1.43;;;19.80;48.90;;;;;;5047215;28;20507;-75
2023/05/18 13:50:57;;;;;;;3.70;2.13;;;20.00;47.30;;;;;;5047067;28;20451;-76
2023/05/18 13:53:24;;;;;;;2.63;1.53;;;19.90;47.80;;;;;;5046384;28;20447;-76
2023/05/18 13:55:51;;;;;;;2.77;1.47;;;20.20;48.10;;;;;;5046527;28;20550;-76
2023/05/18 13:58:18;;;;;;;3.10;1.50;;;19.90;47.80;;;;;;5047247;28;20436;-76
2023/05/18 14:00:45;;;;;;;2.70;1.50;;;19.80;49.10;;;;;;5047022;28;20472;-77
2023/05/18 14:03:13;;;;;;;3.23;1.70;;;19.80;50.00;;;;;;5046802;28;20452;-76
2023/05/18 14:05:41;;;;;;;2.77;1.70;;;19.80;49.20;;;;;;5046057;28;20507;-76
2023/05/18 14:08:08;;;;;;;3.50;1.83;;;19.70;49.40;;;;;;5046663;28;20574;-76
2023/05/18 14:10:35;;;;;;;2.57;1.60;;;19.70;49.10;;;;;;5046589;28;20451;-77
2023/05/18 14:13:02;;;;;;;2.50;1.30;;;19.80;49.00;;;;;;5047078;28;20448;-76
2023/05/18 14:15:28;;;;;;;3.70;1.50;;;19.70;48.00;;;;;;5046508;28;20472;-76
2023/05/18 14:17:55;;;;;;;2.67;1.47;;;19.90;48.10;;;;;;5050252;28;20444;-76
2023/05/18 14:20:22;;;;;;;2.93;1.63;;;20.30;48.90;;;;;;5050647;28;20447;-76
2023/05/18 14:22:50;;;;;;;2.90;1.67;;;20.30;47.30;;;;;;5050392;28;20444;-76
2023/05/18 14:25:17;;;;;;;2.53;1.60;;;20.70;47.60;;;;;;5051211;28;20471;-76
2023/05/18 14:27:44;;;;;;;2.60;1.27;;;20.70;46.20;;;;;;5055198;28;20450;-76
2023/05/18 14:30:11;;;;;;;2.87;1.47;;;20.50;46.10;;;;;;5055008;28;20443;-75
2023/05/18 14:32:37;;;;;;;2.73;1.47;;;20.60;47.10;;;;;;5054687;28;20450;-75
2023/05/18 14:35:05;;;;;;;2.53;1.27;;;20.50;45.80;;;;;;5054620;28;20460;-75
2023/05/18 14:37:32;;;;;;;2.20;1.37;;;19.70;45.70;;;;;;5054367;28;20440;-75
2023/05/18 14:40:01;;;;;;;2.63;1.60;;;19.50;47.80;;;;;;5052350;28;20436;-75
2023/05/18 14:42:28;;;;;;;2.83;1.50;;;19.30;48.00;;;;;;5049993;28;20444;-75
2023/05/18 14:44:55;;;;;;;2.73;1.57;;;19.10;47.50;;;;;;5050322;28;20478;-75
2023/05/18 14:47:21;;;;;;;3.10;1.33;;;19.00;48.70;;;;;;5050001;28;20424;-76
2023/05/18 14:49:48;;;;;;;2.40;1.50;;;19.00;48.70;;;;;;5050204;28;20497;-74
2023/05/18 14:52:15;;;;;;;1.90;1.40;;;19.00;49.40;;;;;;5050403;28;20455;-75
2023/05/18 14:54:42;;;;;;;4.17;1.93;;;19.00;48.80;;;;;;5050258;28;20452;-75
2023/05/18 14:57:11;;;;;;;2.20;1.37;;;18.60;49.10;;;;;;5050448;28;20458;-75
2023/05/18 14:59:38;;;;;;;3.90;1.80;;;18.30;49.40;;;;;;5049495;28;20474;-75
2023/05/18 15:02:07;;;;;;;2.93;1.47;;;18.10;49.30;;;;;;5049946;28;20443;-75
2023/05/18 15:04:34;;;;;;;2.50;1.20;;;18.10;50.10;;;;;;5049538;28;20510;-74
2023/05/18 15:07:01;;;;;;;3.00;1.70;;;18.10;49.90;;;;;;5050193;28;20452;-77
2023/05/18 15:09:28;;;;;;;2.50;1.50;;;18.30;50.40;;;;;;5050007;28;20475;-75
2023/05/18 15:11:55;;;;;;;3.33;1.60;;;18.30;50.20;;;;;;5049918;28;20444;-75
2023/05/18 15:14:23;;;;;;;3.00;1.47;;;18.20;50.50;;;;;;5049556;28;20498;-75
2023/05/18 15:16:49;;;;;;;2.60;1.13;;;18.20;50.60;;;;;;5049149;28;20428;-76
2023/05/18 15:19:16;;;;;;;2.60;1.60;;;18.20;50.70;;;;;;5048928;28;20450;-75
2023/05/18 15:21:43;;;;;;;3.67;1.83;;;18.20;50.20;;;;;;5048529;28;20961;-75
2023/05/18 15:24:10;;;;;;;3.90;1.50;;;18.20;50.50;;;;;;5049218;28;20976;-75
2023/05/18 15:26:40;;;;;;;3.03;2.00;;;18.20;49.90;;;;;;5049439;28;20472;-76
2023/05/18 15:29:07;;;;;;;3.07;1.27;;;18.10;50.60;;;;;;5048464;28;20488;-75
2023/05/18 15:31:38;;;;;;;2.50;1.50;;;18.10;50.80;;;;;;5049108;28;20448;-76
2023/05/18 15:34:05;;;;;;;4.37;1.80;;;17.90;50.90;;;;;;5049021;28;20483;-76
2023/05/18 15:36:32;;;;;;;2.70;1.43;;;17.80;51.00;;;;;;5048782;28;20523;-76
2023/05/18 15:39:03;;;;;;;3.33;1.70;;;17.90;51.60;;;;;;5049996;28;20447;-75
2023/05/18 15:41:32;;;;;;;3.63;1.70;;;17.80;51.20;;;;;;5050477;28;20450;-75
2023/05/18 15:43:59;;;;;;;2.90;1.60;;;17.70;51.40;;;;;;5044784;28;20521;-75
2023/05/18 15:46:28;;;;;;;2.10;1.17;;;17.60;51.90;;;;;;5034739;28;20455;-75
2023/05/18 15:48:56;;;;;;;3.97;1.43;;;17.40;51.80;;;;;;5034545;28;20483;-75
2023/05/18 15:51:23;;;;;;;2.70;1.47;;;17.20;52.70;;;;;;5034271;28;20973;-76
2023/05/18 15:53:50;;;;;;;2.50;1.50;;;17.20;52.90;;;;;;5034016;28;20459;-75
2023/05/18 15:56:17;;;;;;;2.47;1.30;;;17.10;53.10;;;;;;5034223;28;20456;-75
2023/05/18 15:58:44;;;;;;;3.13;1.60;;;17.10;52.90;;;;;;5034444;28;20497;-76
2023/05/18 16:01:11;;;;;;;2.77;1.70;;;17.00;53.50;;;;;;5034337;28;20451;-75
2023/05/18 16:03:38;;;;;;;3.20;1.40;;;17.10;53.70;;;;;;5034403;28;20444;-75
2023/05/18 16:06:07;;;;;;;2.70;1.80;;;17.00;53.70;;;;;;5033939;28;20897;-75
2023/05/18 16:08:34;;;;;;;2.87;1.60;;;17.00;54.00;;;;;;5040406;28;20451;-75
2023/05/18 16:11:01;;;;;;;2.40;1.60;;;17.10;54.10;;;;;;5048097;28;20448;-76
2023/05/18 16:13:28;;;;;;;2.73;1.40;;;17.10;54.40;;;;;;5040357;28;20448;-75
2023/05/18 16:15:55;;;;;;;3.87;1.70;;;17.10;54.30;;;;;;5034243;28;20487;-75
2023/05/18 16:18:21;;;;;;;2.73;1.60;;;17.10;54.30;;;;;;5033797;28;20941;-75
2023/05/18 16:20:48;;;;;;;2.60;1.57;;;17.20;54.50;;;;;;5034032;28;20451;-75
2023/05/18 16:23:16;;;;;;;3.10;1.60;;;17.20;54.40;;;;;;5033914;28;20847;-75
2023/05/18 16:25:43;;;;;;;3.30;1.50;;;17.10;53.90;;;;;;5033869;28;20471;-76
2023/05/18 16:28:09;;;;;;;4.70;1.70;;;17.00;54.50;;;;;;5033593;28;20574;-75
2023/05/18 16:30:36;;;;;;;3.27;1.63;;;17.00;54.60;;;;;;5033688;28;20488;-75
2023/05/18 16:33:03;;;;;;;4.77;2.00;;;16.90;54.20;;;;;;5033648;28;20451;-75
2023/05/18 16:35:30;;;;;;;2.30;1.87;;;16.90;53.60;;;;;;5033405;28;20468;-76
2023/05/18 16:37:57;;;;;;;2.97;1.67;;;16.90;54.10;;;;;;5033725;28;20461;-76
2023/05/18 16:40:25;;;;;;;2.13;1.43;;;16.80;54.60;;;;;;5033181;28;20448;-76
2023/05/18 16:42:52;;;;;;;4.47;1.70;;;16.80;54.90;;;;;;5033685;28;20513;-75
2023/05/18 16:45:19;;;;;;;4.10;1.40;;;16.80;54.20;;;;;;5040729;28;20487;-75
2023/05/18 16:47:46;;;;;;;2.70;1.57;;;16.70;54.20;;;;;;5047263;28;20459;-75
2023/05/18 16:50:12;;;;;;;2.70;1.43;;;16.70;54.50;;;;;;5047458;28;20482;-75
2023/05/18 16:52:39;;;;;;;2.67;1.70;;;16.70;54.10;;;;;;5047259;28;20822;-75